sensor_id;sensor_type;location;lat;lon;timestamp;temperature;humidity
9939;DHT22;5008;50.656;7.188;2023-03-04T04:16:52;2.30;99.90
9939;DHT22;5008;50.656;7.188;2023-03-04T04:19:19;2.30;99.90
9939;DHT22;5008;50.656;7.188;2023-03-04T04:21:47;2.30;99.90
9939;DHT22;5008;50.656;7.188;2023-03-04T04:24:14;2.30;99.90
9939;DHT22;5008;50.656;7.188;2023-03-04T04:26:41;2.40;99.90
9939;DHT22;5008;50.656;7.188;2023-03-04T04:29:09;2.40;99.90
9939;DHT22;5008;50.656;7.188;2023-03-04T04:31:38;2.40;99.90
9939;DHT22;5008;50.656;7.188;2023-03-04T04:34:06;2.40;99.90
9939;DHT22;5008;50.656;7.188;2023-03-04T04:36:33;2.40;99.90
9939;DHT22;5008;50.656;7.188;2023-03-04T04:39:00;2.40;99.90
9939;DHT22;5008;50.656;7.188;2023-03-04T04:41:29;2.40;99.90
9939;DHT22;5008;50.656;7.188;2023-03-04T04:43:57;2.30;99.90
9939;DHT22;5008;50.656;7.188;2023-03-04T04:46:36;2.40;99.90
9939;DHT22;5008;50.656;7.188;2023-03-04T04:49:03;2.40;99.90
9939;DHT22;5008;50.656;7.188;2023-03-04T04:51:32;2.40;99.90
9939;DHT22;5008;50.656;7.188;2023-03-04T04:53:59;2.30;99.90
9939;DHT22;5008;50.656;7.188;2023-03-04T04:56:27;2.40;99.90
9939;DHT22;5008;50.656;7.188;2023-03-04T04:58:57;2.40;99.90
9939;DHT22;5008;50.656;7.188;2023-03-04T05:01:24;2.40;99.90
9939;DHT22;5008;50.656;7.188;2023-03-04T05:03:52;2.40;99.90
9939;DHT22;5008;50.656;7.188;2023-03-04T05:06:21;2.40;99.90
9939;DHT22;5008;50.656;7.188;2023-03-04T05:08:50;2.40;99.90
9939;DHT22;5008;50.656;7.188;2023-03-04T05:11:18;2.40;99.90
9939;DHT22;5008;50.656;7.188;2023-03-04T05:13:45;2.40;99.90
9939;DHT22;5008;50.656;7.188;2023-03-04T05:16:12;2.40;99.90
9939;DHT22;5008;50.656;7.188;2023-03-04T05:18:39;2.40;99.90
9939;DHT22;5008;50.656;7.188;2023-03-04T05:21:06;2.40;99.90
9939;DHT22;5008;50.656;7.188;2023-03-04T05:23:34;2.40;99.90
9939;DHT22;5008;50.656;7.188;2023-03-04T05:26:03;2.40;99.90
9939;DHT22;5008;50.656;7.188;2023-03-04T05:28:30;2.40;99.90
9939;DHT22;5008;50.656;7.188;2023-03-04T05:30:58;2.50;99.90
9939;DHT22;5008;50.656;7.188;2023-03-04T05:33:25;2.50;99.90
9939;DHT22;5008;50.656;7.188;2023-03-04T05:35:52;2.50;99.90
9939;DHT22;5008;50.656;7.188;2023-03-04T05:38:20;2.50;99.90
9939;DHT22;5008;50.656;7.188;2023-03-04T05:40:47;2.50;99.90
9939;DHT22;5008;50.656;7.188;2023-03-04T05:43:16;2.50;99.90
9939;DHT22;5008;50.656;7.188;2023-03-04T05:45:42;2.50;99.90
9939;DHT22;5008;50.656;7.188;2023-03-04T05:48:09;2.50;99.90
9939;DHT22;5008;50.656;7.188;2023-03-04T05:50:40;2.50;99.90
9939;DHT22;5008;50.656;7.188;2023-03-04T05:53:07;2.50;99.90
9939;DHT22;5008;50.656;7.188;2023-03-04T05:55:33;2.50;99.90
9939;DHT22;5008;50.656;7.188;2023-03-04T05:58:00;2.50;99.90
9939;DHT22;5008;50.656;7.188;2023-03-04T06:00:28;2.50;99.90
9939;DHT22;5008;50.656;7.188;2023-03-04T06:02:55;2.60;99.90
9939;DHT22;5008;50.656;7.188;2023-03-04T06:05:22;2.60;99.90
9939;DHT22;5008;50.656;7.188;2023-03-04T06:07:49;2.50;99.90
9939;DHT22;5008;50.656;7.188;2023-03-04T06:10:17;2.50;99.90
9939;DHT22;5008;50.656;7.188;2023-03-04T06:12:44;2.60;99.90
9939;DHT22;5008;50.656;7.188;2023-03-04T06:15:12;2.60;99.90
9939;DHT22;5008;50.656;7.188;2023-03-04T06:17:41;2.50;99.90
9939;DHT22;5008;50.656;7.188;2023-03-04T06:20:09;2.50;99.90
9939;DHT22;5008;50.656;7.188;2023-03-04T06:22:39;2.50;99.90
9939;DHT22;5008;50.656;7.188;2023-03-04T06:25:06;2.50;99.90
9939;DHT22;5008;50.656;7.188;2023-03-04T06:27:33;2.50;99.90
9939;DHT22;5008;50.656;7.188;2023-03-04T06:30:00;2.50;99.90
9939;DHT22;5008;50.656;7.188;2023-03-04T06:32:27;2.50;99.90
9939;DHT22;5008;50.656;7.188;2023-03-04T06:34:56;2.50;99.90
9939;DHT22;5008;50.656;7.188;2023-03-04T06:37:22;2.50;99.90
9939;DHT22;5008;50.656;7.188;2023-03-04T06:39:49;2.60;99.90
9939;DHT22;5008;50.656;7.188;2023-03-04T06:42:16;2.60;99.90
9939;DHT22;5008;50.656;7.188;2023-03-04T06:44:44;2.60;99.90
9939;DHT22;5008;50.656;7.188;2023-03-04T06:47:10;2.60;99.90
9939;DHT22;5008;50.656;7.188;2023-03-04T06:49:37;2.60;99.90
9939;DHT22;5008;50.656;7.188;2023-03-04T06:52:05;2.70;99.90
9939;DHT22;5008;50.656;7.188;2023-03-04T06:54:32;2.70;99.90
9939;DHT22;5008;50.656;7.188;2023-03-04T06:56:59;2.80;99.90
9939;DHT22;5008;50.656;7.188;2023-03-04T06:59:26;2.80;99.90
9939;DHT22;5008;50.656;7.188;2023-03-04T07:01:53;2.90;99.90
9939;DHT22;5008;50.656;7.188;2023-03-04T07:04:20;2.90;99.90
9939;DHT22;5008;50.656;7.188;2023-03-04T07:06:48;2.90;99.90
9939;DHT22;5008;50.656;7.188;2023-03-04T07:09:17;2.90;99.90
9939;DHT22;5008;50.656;7.188;2023-03-04T07:12:13;2.90;99.90
9939;DHT22;5008;50.656;7.188;2023-03-04T07:14:42;3.00;99.90
9939;DHT22;5008;50.656;7.188;2023-03-04T07:17:08;2.90;99.90
9939;DHT22;5008;50.656;7.188;2023-03-04T07:19:35;2.90;99.90
9939;DHT22;5008;50.656;7.188;2023-03-04T07:22:09;2.90;99.90
9939;DHT22;5008;50.656;7.188;2023-03-04T07:24:37;3.00;99.90
9939;DHT22;5008;50.656;7.188;2023-03-04T07:27:04;3.00;99.90
9939;DHT22;5008;50.656;7.188;2023-03-04T07:29:31;3.00;99.90
9939;DHT22;5008;50.656;7.188;2023-03-04T07:31:57;3.10;99.90
9939;DHT22;5008;50.656;7.188;2023-03-04T07:34:24;3.10;99.90
9939;DHT22;5008;50.656;7.188;2023-03-04T07:36:59;3.10;99.90
9939;DHT22;5008;50.656;7.188;2023-03-04T07:39:26;3.10;99.90
9939;DHT22;5008;50.656;7.188;2023-03-04T07:41:54;3.10;99.90
9939;DHT22;5008;50.656;7.188;2023-03-04T07:44:21;3.20;99.90
9939;DHT22;5008;50.656;7.188;2023-03-04T07:46:47;3.20;99.90
9939;DHT22;5008;50.656;7.188;2023-03-04T07:49:14;3.30;99.90
9939;DHT22;5008;50.656;7.188;2023-03-04T07:51:41;3.30;99.90
9939;DHT22;5008;50.656;7.188;2023-03-04T07:54:08;3.40;99.90
9939;DHT22;5008;50.656;7.188;2023-03-04T07:56:35;3.40;99.90
9939;DHT22;5008;50.656;7.188;2023-03-04T07:59:03;3.40;99.90
9939;DHT22;5008;50.656;7.188;2023-03-04T08:01:32;3.40;99.90
9939;DHT22;5008;50.656;7.188;2023-03-04T08:04:01;3.50;99.90
9939;DHT22;5008;50.656;7.188;2023-03-04T08:06:39;3.60;99.90
9939;DHT22;5008;50.656;7.188;2023-03-04T08:09:07;3.60;99.90
9939;DHT22;5008;50.656;7.188;2023-03-04T08:11:36;3.60;99.90
9939;DHT22;5008;50.656;7.188;2023-03-04T08:14:04;3.70;99.90
9939;DHT22;5008;50.656;7.188;2023-03-04T08:16:32;3.70;99.90
9939;DHT22;5008;50.656;7.188;2023-03-04T08:19:00;3.70;99.90
9939;DHT22;5008;50.656;7.188;2023-03-04T08:21:28;3.80;99.90
9939;DHT22;5008;50.656;7.188;2023-03-04T08:24:01;3.80;99.90
9939;DHT22;5008;50.656;7.188;2023-03-04T08:26:34;3.90;99.90
9939;DHT22;5008;50.656;7.188;2023-03-04T08:29:04;4.00;99.90
9939;DHT22;5008;50.656;7.188;2023-03-04T08:31:38;4.10;99.90
9939;DHT22;5008;50.656;7.188;2023-03-04T08:34:06;4.30;99.90
9939;DHT22;5008;50.656;7.188;2023-03-04T08:36:35;4.40;99.90
9939;DHT22;5008;50.656;7.188;2023-03-04T08:39:13;4.40;99.90
9939;DHT22;5008;50.656;7.188;2023-03-04T08:41:41;4.50;99.90
9939;DHT22;5008;50.656;7.188;2023-03-04T08:44:09;4.60;99.90
9939;DHT22;5008;50.656;7.188;2023-03-04T08:46:38;4.60;99.90
9939;DHT22;5008;50.656;7.188;2023-03-04T08:49:06;4.70;99.90
9939;DHT22;5008;50.656;7.188;2023-03-04T08:51:34;4.80;99.90
9939;DHT22;5008;50.656;7.188;2023-03-04T08:54:01;4.90;99.90
9939;DHT22;5008;50.656;7.188;2023-03-04T08:56:28;4.80;99.90
9939;DHT22;5008;50.656;7.188;2023-03-04T08:58:55;4.90;99.90
9939;DHT22;5008;50.656;7.188;2023-03-04T09:01:23;4.90;99.90
9939;DHT22;5008;50.656;7.188;2023-03-04T09:03:50;5.00;99.90
9939;DHT22;5008;50.656;7.188;2023-03-04T09:06:18;5.10;99.90
9939;DHT22;5008;50.656;7.188;2023-03-04T09:08:45;5.20;99.90
9939;DHT22;5008;50.656;7.188;2023-03-04T09:11:12;5.20;99.90
9939;DHT22;5008;50.656;7.188;2023-03-04T09:13:39;5.20;99.90
9939;DHT22;5008;50.656;7.188;2023-03-04T09:16:09;5.20;99.90
9939;DHT22;5008;50.656;7.188;2023-03-04T09:18:38;5.30;99.90
9939;DHT22;5008;50.656;7.188;2023-03-04T09:21:06;5.30;99.90
9939;DHT22;5008;50.656;7.188;2023-03-04T09:23:33;5.20;99.90
9939;DHT22;5008;50.656;7.188;2023-03-04T09:26:00;5.30;99.90
9939;DHT22;5008;50.656;7.188;2023-03-04T09:28:27;5.30;99.90
9939;DHT22;5008;50.656;7.188;2023-03-04T09:30:54;5.40;99.90
9939;DHT22;5008;50.656;7.188;2023-03-04T09:33:21;5.40;99.90
9939;DHT22;5008;50.656;7.188;2023-03-04T09:35:49;5.40;99.90
9939;DHT22;5008;50.656;7.188;2023-03-04T09:38:16;5.40;99.90
9939;DHT22;5008;50.656;7.188;2023-03-04T09:40:45;5.50;99.90
9939;DHT22;5008;50.656;7.188;2023-03-04T09:43:19;5.60;99.90
9939;DHT22;5008;50.656;7.188;2023-03-04T09:45:48;5.60;99.90
9939;DHT22;5008;50.656;7.188;2023-03-04T09:48:20;5.60;99.90
9939;DHT22;5008;50.656;7.188;2023-03-04T09:50:59;5.50;99.90
9939;DHT22;5008;50.656;7.188;2023-03-04T09:53:33;5.60;99.90
9939;DHT22;5008;50.656;7.188;2023-03-04T09:56:02;5.60;99.90
9939;DHT22;5008;50.656;7.188;2023-03-04T09:58:45;5.60;99.90
9939;DHT22;5008;50.656;7.188;2023-03-04T10:01:19;5.60;99.90
9939;DHT22;5008;50.656;7.188;2023-03-04T10:03:50;5.70;99.90
9939;DHT22;5008;50.656;7.188;2023-03-04T10:06:21;5.70;99.90
9939;DHT22;5008;50.656;7.188;2023-03-04T10:08:56;5.80;99.90
9939;DHT22;5008;50.656;7.188;2023-03-04T10:11:28;5.70;99.90
9939;DHT22;5008;50.656;7.188;2023-03-04T10:14:15;5.80;99.90
9939;DHT22;5008;50.656;7.188;2023-03-04T10:16:47;5.90;99.90
9939;DHT22;5008;50.656;7.188;2023-03-04T10:19:23;5.90;99.90
9939;DHT22;5008;50.656;7.188;2023-03-04T10:21:53;5.80;99.90
9939;DHT22;5008;50.656;7.188;2023-03-04T10:24:25;5.90;99.90
9939;DHT22;5008;50.656;7.188;2023-03-04T10:26:57;6.00;99.90
9939;DHT22;5008;50.656;7.188;2023-03-04T10:29:28;6.20;99.90
9939;DHT22;5008;50.656;7.188;2023-03-04T10:31:56;6.30;99.90
9939;DHT22;5008;50.656;7.188;2023-03-04T10:34:24;6.50;99.90
9939;DHT22;5008;50.656;7.188;2023-03-04T10:36:58;6.60;99.90
9939;DHT22;5008;50.656;7.188;2023-03-04T10:39:28;6.80;99.90
9939;DHT22;5008;50.656;7.188;2023-03-04T10:42:00;7.10;99.90
9939;DHT22;5008;50.656;7.188;2023-03-04T10:44:28;7.20;99.90
9939;DHT22;5008;50.656;7.188;2023-03-04T10:46:56;7.30;99.90
9939;DHT22;5008;50.656;7.188;2023-03-04T10:49:26;7.30;99.90
9939;DHT22;5008;50.656;7.188;2023-03-04T10:51:54;7.10;99.90
9939;DHT22;5008;50.656;7.188;2023-03-04T10:54:30;7.10;99.90
9939;DHT22;5008;50.656;7.188;2023-03-04T10:56:59;7.10;99.90
9939;DHT22;5008;50.656;7.188;2023-03-04T10:59:33;7.10;99.90
9939;DHT22;5008;50.656;7.188;2023-03-04T11:02:07;6.90;99.90
9939;DHT22;5008;50.656;7.188;2023-03-04T11:04:39;7.00;99.90
9939;DHT22;5008;50.656;7.188;2023-03-04T11:07:08;7.10;99.90
9939;DHT22;5008;50.656;7.188;2023-03-04T11:09:37;7.40;99.90
9939;DHT22;5008;50.656;7.188;2023-03-04T11:12:10;7.60;99.90
9939;DHT22;5008;50.656;7.188;2023-03-04T11:14:39;7.60;99.90
9939;DHT22;5008;50.656;7.188;2023-03-04T11:17:21;7.70;99.90
9939;DHT22;5008;50.656;7.188;2023-03-04T11:19:51;7.60;99.90
9939;DHT22;5008;50.656;7.188;2023-03-04T11:22:21;7.60;99.90
9939;DHT22;5008;50.656;7.188;2023-03-04T11:24:55;7.60;99.90
9939;DHT22;5008;50.656;7.188;2023-03-04T11:27:28;7.60;99.90
9939;DHT22;5008;50.656;7.188;2023-03-04T11:30:02;7.70;99.90
9939;DHT22;5008;50.656;7.188;2023-03-04T11:32:35;7.80;99.90
9939;DHT22;5008;50.656;7.188;2023-03-04T11:35:14;7.90;99.90
9939;DHT22;5008;50.656;7.188;2023-03-04T11:37:50;7.80;99.90
9939;DHT22;5008;50.656;7.188;2023-03-04T11:40:27;7.70;99.90
9939;DHT22;5008;50.656;7.188;2023-03-04T11:42:58;7.60;99.90
9939;DHT22;5008;50.656;7.188;2023-03-04T11:45:30;7.60;99.90
9939;DHT22;5008;50.656;7.188;2023-03-04T11:48:05;7.50;99.90
9939;DHT22;5008;50.656;7.188;2023-03-04T11:50:44;7.50;99.90
9939;DHT22;5008;50.656;7.188;2023-03-04T11:53:28;7.60;99.90
9939;DHT22;5008;50.656;7.188;2023-03-04T11:56:19;7.50;99.90
9939;DHT22;5008;50.656;7.188;2023-03-04T11:59:06;7.50;99.90
9939;DHT22;5008;50.656;7.188;2023-03-04T12:01:44;7.60;99.90
9939;DHT22;5008;50.656;7.188;2023-03-04T12:07:11;7.90;99.90
9939;DHT22;5008;50.656;7.188;2023-03-04T12:09:52;7.70;99.90
9939;DHT22;5008;50.656;7.188;2023-03-04T12:12:40;7.60;99.90
9939;DHT22;5008;50.656;7.188;2023-03-04T12:15:16;7.40;99.90
9939;DHT22;5008;50.656;7.188;2023-03-04T12:18:26;7.40;99.90
9939;DHT22;5008;50.656;7.188;2023-03-04T12:21:02;7.30;99.90
9939;DHT22;5008;50.656;7.188;2023-03-04T12:23:47;7.40;99.90
9939;DHT22;5008;50.656;7.188;2023-03-04T12:26:27;7.30;99.90
9939;DHT22;5008;50.656;7.188;2023-03-04T12:29:02;7.50;99.90
9939;DHT22;5008;50.656;7.188;2023-03-04T12:31:33;7.60;99.90
9939;DHT22;5008;50.656;7.188;2023-03-04T12:37:04;7.90;99.90
9939;DHT22;5008;50.656;7.188;2023-03-04T12:39:33;7.90;99.90
9939;DHT22;5008;50.656;7.188;2023-03-04T12:42:12;7.80;99.90
9939;DHT22;5008;50.656;7.188;2023-03-04T12:44:51;7.80;99.90
9939;DHT22;5008;50.656;7.188;2023-03-04T12:47:29;7.80;99.90
9939;DHT22;5008;50.656;7.188;2023-03-04T12:50:15;7.80;99.90
9939;DHT22;5008;50.656;7.188;2023-03-04T12:52:55;7.60;99.90
9939;DHT22;5008;50.656;7.188;2023-03-04T12:55:31;7.60;99.90
9939;DHT22;5008;50.656;7.188;2023-03-04T12:58:01;7.60;99.90
9939;DHT22;5008;50.656;7.188;2023-03-04T13:00:39;7.50;99.90
9939;DHT22;5008;50.656;7.188;2023-03-04T13:03:13;7.60;99.90
9939;DHT22;5008;50.656;7.188;2023-03-04T13:05:54;7.60;99.90
9939;DHT22;5008;50.656;7.188;2023-03-04T13:08:30;7.60;99.90
9939;DHT22;5008;50.656;7.188;2023-03-04T13:11:00;7.70;99.90
9939;DHT22;5008;50.656;7.188;2023-03-04T13:13:37;7.70;99.90
9939;DHT22;5008;50.656;7.188;2023-03-04T13:16:29;7.70;99.90
9939;DHT22;5008;50.656;7.188;2023-03-04T13:18:57;7.70;99.90
9939;DHT22;5008;50.656;7.188;2023-03-04T13:21:27;7.70;99.90
9939;DHT22;5008;50.656;7.188;2023-03-04T13:23:57;7.60;99.90
9939;DHT22;5008;50.656;7.188;2023-03-04T13:26:30;7.60;99.90
9939;DHT22;5008;50.656;7.188;2023-03-04T13:29:32;7.70;99.90
9939;DHT22;5008;50.656;7.188;2023-03-04T13:32:04;7.60;99.90
9939;DHT22;5008;50.656;7.188;2023-03-04T13:34:50;7.60;99.90
9939;DHT22;5008;50.656;7.188;2023-03-04T13:37:34;7.50;99.90
9939;DHT22;5008;50.656;7.188;2023-03-04T13:40:35;7.50;99.90
9939;DHT22;5008;50.656;7.188;2023-03-04T13:43:24;7.60;99.90
9939;DHT22;5008;50.656;7.188;2023-03-04T13:45:54;7.60;99.90
9939;DHT22;5008;50.656;7.188;2023-03-04T13:48:30;7.50;99.90
9939;DHT22;5008;50.656;7.188;2023-03-04T13:50:57;7.40;99.90
9939;DHT22;5008;50.656;7.188;2023-03-04T13:53:30;7.50;99.90
9939;DHT22;5008;50.656;7.188;2023-03-04T13:58:48;7.50;99.90
9939;DHT22;5008;50.656;7.188;2023-03-04T14:01:24;7.40;99.90
9939;DHT22;5008;50.656;7.188;2023-03-04T14:03:52;7.40;99.90
9939;DHT22;5008;50.656;7.188;2023-03-04T14:06:21;7.50;99.90
9939;DHT22;5008;50.656;7.188;2023-03-04T14:08:49;7.50;99.90
9939;DHT22;5008;50.656;7.188;2023-03-04T14:11:25;7.50;99.90
9939;DHT22;5008;50.656;7.188;2023-03-04T14:13:53;7.60;99.90
9939;DHT22;5008;50.656;7.188;2023-03-04T14:16:25;7.70;99.90
9939;DHT22;5008;50.656;7.188;2023-03-04T14:19:01;7.70;99.90
9939;DHT22;5008;50.656;7.188;2023-03-04T14:21:29;7.60;99.90
9939;DHT22;5008;50.656;7.188;2023-03-04T14:24:06;7.60;99.90
9939;DHT22;5008;50.656;7.188;2023-03-04T14:26:33;7.60;99.90
9939;DHT22;5008;50.656;7.188;2023-03-04T14:29:00;7.60;99.90
9939;DHT22;5008;50.656;7.188;2023-03-04T14:31:29;7.50;99.90
9939;DHT22;5008;50.656;7.188;2023-03-04T14:33:59;7.40;99.90
9939;DHT22;5008;50.656;7.188;2023-03-04T14:36:29;7.40;99.90
9939;DHT22;5008;50.656;7.188;2023-03-04T14:38:58;7.40;99.90
9939;DHT22;5008;50.656;7.188;2023-03-04T14:41:33;7.50;99.90
9939;DHT22;5008;50.656;7.188;2023-03-04T14:44:07;7.40;99.90
9939;DHT22;5008;50.656;7.188;2023-03-04T14:46:38;7.50;99.90
9939;DHT22;5008;50.656;7.188;2023-03-04T14:49:10;7.70;99.90
9939;DHT22;5008;50.656;7.188;2023-03-04T14:51:47;7.70;99.90
9939;DHT22;5008;50.656;7.188;2023-03-04T14:54:30;7.60;99.90
9939;DHT22;5008;50.656;7.188;2023-03-04T14:56:58;7.60;99.90
9939;DHT22;5008;50.656;7.188;2023-03-04T14:59:30;7.60;99.90
9939;DHT22;5008;50.656;7.188;2023-03-04T15:02:23;7.60;99.90
9939;DHT22;5008;50.656;7.188;2023-03-04T15:05:00;7.60;99.90
9939;DHT22;5008;50.656;7.188;2023-03-04T15:07:34;7.50;99.90
9939;DHT22;5008;50.656;7.188;2023-03-04T15:10:02;7.70;99.90
9939;DHT22;5008;50.656;7.188;2023-03-04T15:12:32;7.60;99.90
9939;DHT22;5008;50.656;7.188;2023-03-04T15:15:00;7.50;99.90
9939;DHT22;5008;50.656;7.188;2023-03-04T15:17:33;7.50;99.90
9939;DHT22;5008;50.656;7.188;2023-03-04T15:20:20;7.40;99.90
9939;DHT22;5008;50.656;7.188;2023-03-04T15:22:59;7.30;99.90
9939;DHT22;5008;50.656;7.188;2023-03-04T15:25:26;7.30;99.90
9939;DHT22;5008;50.656;7.188;2023-03-04T15:27:53;7.30;99.90
9939;DHT22;5008;50.656;7.188;2023-03-04T15:30:22;7.30;99.90
9939;DHT22;5008;50.656;7.188;2023-03-04T15:32:50;7.30;99.90
9939;DHT22;5008;50.656;7.188;2023-03-04T15:35:18;7.30;99.90
9939;DHT22;5008;50.656;7.188;2023-03-04T15:37:46;7.20;99.90
9939;DHT22;5008;50.656;7.188;2023-03-04T15:40:23;7.10;99.90
9939;DHT22;5008;50.656;7.188;2023-03-04T15:42:50;7.20;99.90
9939;DHT22;5008;50.656;7.188;2023-03-04T15:45:21;7.30;99.90
9939;DHT22;5008;50.656;7.188;2023-03-04T15:47:48;7.20;99.90
9939;DHT22;5008;50.656;7.188;2023-03-04T15:50:15;7.20;99.90
9939;DHT22;5008;50.656;7.188;2023-03-04T15:52:44;7.10;99.90
9939;DHT22;5008;50.656;7.188;2023-03-04T15:55:14;7.10;99.90
9939;DHT22;5008;50.656;7.188;2023-03-04T15:57:44;7.10;99.90
9939;DHT22;5008;50.656;7.188;2023-03-04T16:00:12;7.10;99.90
9939;DHT22;5008;50.656;7.188;2023-03-04T16:02:39;7.10;99.90
9939;DHT22;5008;50.656;7.188;2023-03-04T16:05:07;7.10;99.90
9939;DHT22;5008;50.656;7.188;2023-03-04T16:07:34;7.00;99.90
9939;DHT22;5008;50.656;7.188;2023-03-04T16:10:04;7.00;99.90
9939;DHT22;5008;50.656;7.188;2023-03-04T16:12:33;6.90;99.90
9939;DHT22;5008;50.656;7.188;2023-03-04T16:15:12;6.90;99.90
9939;DHT22;5008;50.656;7.188;2023-03-04T16:17:39;7.00;99.90
9939;DHT22;5008;50.656;7.188;2023-03-04T16:20:13;7.00;99.90
9939;DHT22;5008;50.656;7.188;2023-03-04T16:22:48;7.10;99.90
9939;DHT22;5008;50.656;7.188;2023-03-04T16:25:23;7.00;99.90
9939;DHT22;5008;50.656;7.188;2023-03-04T16:27:56;7.00;99.90
9939;DHT22;5008;50.656;7.188;2023-03-04T16:30:30;7.00;99.90
9939;DHT22;5008;50.656;7.188;2023-03-04T16:33:14;7.00;99.90
9939;DHT22;5008;50.656;7.188;2023-03-04T16:35:43;7.00;99.90
9939;DHT22;5008;50.656;7.188;2023-03-04T16:38:17;7.00;99.90
9939;DHT22;5008;50.656;7.188;2023-03-04T16:40:47;7.10;99.90
9939;DHT22;5008;50.656;7.188;2023-03-04T16:43:14;7.20;99.90
9939;DHT22;5008;50.656;7.188;2023-03-04T16:45:42;7.20;99.90
9939;DHT22;5008;50.656;7.188;2023-03-04T16:48:09;7.20;99.90
9939;DHT22;5008;50.656;7.188;2023-03-04T16:50:37;7.10;99.90
9939;DHT22;5008;50.656;7.188;2023-03-04T16:53:22;7.10;99.90
9939;DHT22;5008;50.656;7.188;2023-03-04T16:55:51;7.10;99.90
9939;DHT22;5008;50.656;7.188;2023-03-04T16:58:18;7.00;99.90
9939;DHT22;5008;50.656;7.188;2023-03-04T17:00:45;6.90;99.90
9939;DHT22;5008;50.656;7.188;2023-03-04T17:03:12;6.90;99.90
9939;DHT22;5008;50.656;7.188;2023-03-04T17:05:39;7.00;99.90
9939;DHT22;5008;50.656;7.188;2023-03-04T17:08:07;7.00;99.90
9939;DHT22;5008;50.656;7.188;2023-03-04T17:10:34;7.00;99.90
9939;DHT22;5008;50.656;7.188;2023-03-04T17:13:03;7.00;99.90
9939;DHT22;5008;50.656;7.188;2023-03-04T17:15:36;7.00;99.90
9939;DHT22;5008;50.656;7.188;2023-03-04T17:18:03;6.90;99.90
9939;DHT22;5008;50.656;7.188;2023-03-04T17:20:30;6.90;99.90
9939;DHT22;5008;50.656;7.188;2023-03-04T17:22:57;6.90;99.90
9939;DHT22;5008;50.656;7.188;2023-03-04T17:25:23;6.90;99.90
9939;DHT22;5008;50.656;7.188;2023-03-04T17:27:50;7.00;99.90
9939;DHT22;5008;50.656;7.188;2023-03-04T17:30:19;6.90;99.90
9939;DHT22;5008;50.656;7.188;2023-03-04T17:32:46;6.80;99.90
9939;DHT22;5008;50.656;7.188;2023-03-04T17:35:12;6.80;99.90
9939;DHT22;5008;50.656;7.188;2023-03-04T17:37:39;6.90;99.90
9939;DHT22;5008;50.656;7.188;2023-03-04T17:40:08;6.80;99.90
9939;DHT22;5008;50.656;7.188;2023-03-04T17:42:38;6.80;99.90
9939;DHT22;5008;50.656;7.188;2023-03-04T17:45:07;6.80;99.90
9939;DHT22;5008;50.656;7.188;2023-03-04T17:47:35;6.80;99.90
9939;DHT22;5008;50.656;7.188;2023-03-04T17:50:03;6.70;99.90
9939;DHT22;5008;50.656;7.188;2023-03-04T17:52:31;6.80;99.90
9939;DHT22;5008;50.656;7.188;2023-03-04T17:55:02;6.90;99.90
9939;DHT22;5008;50.656;7.188;2023-03-04T17:57:34;6.70;99.90
9939;DHT22;5008;50.656;7.188;2023-03-04T18:00:01;6.80;99.90
9939;DHT22;5008;50.656;7.188;2023-03-04T18:02:28;6.80;99.90
9939;DHT22;5008;50.656;7.188;2023-03-04T18:04:56;6.70;99.90
9939;DHT22;5008;50.656;7.188;2023-03-04T18:07:23;6.60;99.90
9939;DHT22;5008;50.656;7.188;2023-03-04T18:09:50;6.60;99.90
9939;DHT22;5008;50.656;7.188;2023-03-04T18:12:17;6.60;99.90
9939;DHT22;5008;50.656;7.188;2023-03-04T18:15:01;6.60;99.90
9939;DHT22;5008;50.656;7.188;2023-03-04T18:17:28;6.60;99.90
9939;DHT22;5008;50.656;7.188;2023-03-04T18:19:57;6.50;99.90
9939;DHT22;5008;50.656;7.188;2023-03-04T18:22:24;6.50;99.90
9939;DHT22;5008;50.656;7.188;2023-03-04T18:24:56;6.50;99.90
9939;DHT22;5008;50.656;7.188;2023-03-04T18:27:45;6.50;99.90
9939;DHT22;5008;50.656;7.188;2023-03-04T18:30:41;6.50;99.90
9939;DHT22;5008;50.656;7.188;2023-03-04T18:33:14;6.50;99.90
9939;DHT22;5008;50.656;7.188;2023-03-04T18:39:12;6.40;99.90
9939;DHT22;5008;50.656;7.188;2023-03-04T18:41:47;6.30;99.90
9939;DHT22;5008;50.656;7.188;2023-03-04T18:44:28;6.30;99.90
9939;DHT22;5008;50.656;7.188;2023-03-04T18:46:59;6.30;99.90
9939;DHT22;5008;50.656;7.188;2023-03-04T18:49:27;6.30;99.90
9939;DHT22;5008;50.656;7.188;2023-03-04T18:51:57;6.30;99.90
9939;DHT22;5008;50.656;7.188;2023-03-04T18:57:36;6.30;99.90
9939;DHT22;5008;50.656;7.188;2023-03-04T19:00:08;6.30;99.90
9939;DHT22;5008;50.656;7.188;2023-03-04T19:02:52;6.30;99.90
9939;DHT22;5008;50.656;7.188;2023-03-04T19:05:37;6.30;99.90
9939;DHT22;5008;50.656;7.188;2023-03-04T19:08:07;6.30;99.90
9939;DHT22;5008;50.656;7.188;2023-03-04T19:10:36;6.30;99.90
9939;DHT22;5008;50.656;7.188;2023-03-04T19:13:06;6.30;99.90
9939;DHT22;5008;50.656;7.188;2023-03-04T19:15:39;6.30;99.90
9939;DHT22;5008;50.656;7.188;2023-03-04T19:18:06;6.30;99.90
9939;DHT22;5008;50.656;7.188;2023-03-04T19:20:32;6.20;99.90
9939;DHT22;5008;50.656;7.188;2023-03-04T19:23:02;6.20;99.90
9939;DHT22;5008;50.656;7.188;2023-03-04T19:25:30;6.20;99.90
9939;DHT22;5008;50.656;7.188;2023-03-04T19:27:58;6.20;99.90
9939;DHT22;5008;50.656;7.188;2023-03-04T19:30:25;6.20;99.90
9939;DHT22;5008;50.656;7.188;2023-03-04T19:32:52;6.20;99.90
9939;DHT22;5008;50.656;7.188;2023-03-04T19:35:30;6.20;99.90
9939;DHT22;5008;50.656;7.188;2023-03-04T19:37:57;6.20;99.90
9939;DHT22;5008;50.656;7.188;2023-03-04T19:40:24;6.20;99.90
9939;DHT22;5008;50.656;7.188;2023-03-04T19:42:53;6.20;99.90
9939;DHT22;5008;50.656;7.188;2023-03-04T19:45:21;6.20;99.90
9939;DHT22;5008;50.656;7.188;2023-03-04T19:47:50;6.20;99.90
9939;DHT22;5008;50.656;7.188;2023-03-04T19:50:17;6.10;99.90
9939;DHT22;5008;50.656;7.188;2023-03-04T19:52:53;6.10;99.90
9939;DHT22;5008;50.656;7.188;2023-03-04T19:55:20;6.10;99.90
9939;DHT22;5008;50.656;7.188;2023-03-04T19:57:47;6.10;99.90
9939;DHT22;5008;50.656;7.188;2023-03-04T20:00:15;6.10;99.90
9939;DHT22;5008;50.656;7.188;2023-03-04T20:02:44;6.10;99.90
9939;DHT22;5008;50.656;7.188;2023-03-04T20:05:12;6.10;99.90
9939;DHT22;5008;50.656;7.188;2023-03-04T20:07:39;6.10;99.90
9939;DHT22;5008;50.656;7.188;2023-03-04T20:10:07;6.10;99.90
9939;DHT22;5008;50.656;7.188;2023-03-04T20:12:34;6.10;99.90
9939;DHT22;5008;50.656;7.188;2023-03-04T20:15:05;6.10;99.90
9939;DHT22;5008;50.656;7.188;2023-03-04T20:17:34;6.10;99.90
9939;DHT22;5008;50.656;7.188;2023-03-04T20:20:03;6.10;99.90
9939;DHT22;5008;50.656;7.188;2023-03-04T20:22:31;6.10;99.90
9939;DHT22;5008;50.656;7.188;2023-03-04T20:24:59;6.10;99.90
9939;DHT22;5008;50.656;7.188;2023-03-04T20:27:25;6.10;99.90
9939;DHT22;5008;50.656;7.188;2023-03-04T20:29:52;6.10;99.90
9939;DHT22;5008;50.656;7.188;2023-03-04T20:32:19;6.20;99.90
9939;DHT22;5008;50.656;7.188;2023-03-04T20:34:46;6.20;99.90
9939;DHT22;5008;50.656;7.188;2023-03-04T20:37:19;6.30;99.90
9939;DHT22;5008;50.656;7.188;2023-03-04T20:39:46;6.30;99.90
9939;DHT22;5008;50.656;7.188;2023-03-04T20:42:13;6.30;99.90
9939;DHT22;5008;50.656;7.188;2023-03-04T20:44:40;6.30;99.90
9939;DHT22;5008;50.656;7.188;2023-03-04T20:47:07;6.30;99.90
9939;DHT22;5008;50.656;7.188;2023-03-04T20:49:35;6.20;99.90
9939;DHT22;5008;50.656;7.188;2023-03-04T20:52:02;6.30;99.90
9939;DHT22;5008;50.656;7.188;2023-03-04T20:54:32;6.30;99.90
9939;DHT22;5008;50.656;7.188;2023-03-04T20:56:59;6.30;99.90
9939;DHT22;5008;50.656;7.188;2023-03-04T20:59:27;6.30;99.90
9939;DHT22;5008;50.656;7.188;2023-03-04T21:01:53;6.20;99.90
9939;DHT22;5008;50.656;7.188;2023-03-04T21:04:21;6.20;99.90
9939;DHT22;5008;50.656;7.188;2023-03-04T21:06:48;6.20;99.90
9939;DHT22;5008;50.656;7.188;2023-03-04T21:09:18;6.30;99.90
9939;DHT22;5008;50.656;7.188;2023-03-04T21:11:47;6.20;99.90